sensor_id;sensor_type;location;lat;lon;timestamp;P1;durP1;ratioP1;P2;durP2;ratioP2
6941;SDS011;3510;43.200;27.920;2023-04-01T00:00:21;62.37;;;50.97;;
6941;SDS011;3510;43.200;27.920;2023-04-01T00:02:50;67.20;;;43.90;;
6941;SDS011;3510;43.200;27.920;2023-04-01T00:05:17;69.77;;;45.50;;
6941;SDS011;3510;43.200;27.920;2023-04-01T00:07:55;80.33;;;48.87;;
6941;SDS011;3510;43.200;27.920;2023-04-01T00:10:22;81.80;;;50.33;;
6941;SDS011;3510;43.200;27.920;2023-04-01T00:12:49;67.47;;;49.53;;
6941;SDS011;3510;43.200;27.920;2023-04-01T00:15:16;64.23;;;42.33;;
6941;SDS011;3510;43.200;27.920;2023-04-01T00:17:42;61.93;;;41.70;;
6941;SDS011;3510;43.200;27.920;2023-04-01T00:20:12;61.10;;;40.23;;
6941;SDS011;3510;43.200;27.920;2023-04-01T00:22:39;64.53;;;44.60;;
6941;SDS011;3510;43.200;27.920;2023-04-01T00:25:06;61.75;;;48.30;;
6941;SDS011;3510;43.200;27.920;2023-04-01T00:27:33;68.13;;;43.37;;
6941;SDS011;3510;43.200;27.920;2023-04-01T00:30:00;54.83;;;44.13;;
6941;SDS011;3510;43.200;27.920;2023-04-01T00:32:27;57.63;;;44.83;;
6941;SDS011;3510;43.200;27.920;2023-04-01T00:34:54;47.90;;;36.73;;
6941;SDS011;3510;43.200;27.920;2023-04-01T00:37:22;58.90;;;37.80;;
6941;SDS011;3510;43.200;27.920;2023-04-01T00:39:49;52.88;;;41.75;;
6941;SDS011;3510;43.200;27.920;2023-04-01T00:42:16;55.33;;;42.45;;
6941;SDS011;3510;43.200;27.920;2023-04-01T00:44:44;55.95;;;44.67;;
6941;SDS011;3510;43.200;27.920;2023-04-01T00:47:14;49.30;;;39.10;;
6941;SDS011;3510;43.200;27.920;2023-04-01T00:49:42;50.87;;;36.73;;
6941;SDS011;3510;43.200;27.920;2023-04-01T00:52:12;51.50;;;36.77;;
6941;SDS011;3510;43.200;27.920;2023-04-01T00:54:44;46.63;;;36.03;;
6941;SDS011;3510;43.200;27.920;2023-04-01T00:57:15;46.27;;;34.00;;
6941;SDS011;3510;43.200;27.920;2023-04-01T00:59:48;48.03;;;29.23;;
6941;SDS011;3510;43.200;27.920;2023-04-01T01:02:17;36.77;;;25.80;;
6941;SDS011;3510;43.200;27.920;2023-04-01T01:04:44;37.07;;;27.47;;
6941;SDS011;3510;43.200;27.920;2023-04-01T01:07:13;35.50;;;23.30;;
6941;SDS011;3510;43.200;27.920;2023-04-01T01:09:52;45.10;;;21.60;;
6941;SDS011;3510;43.200;27.920;2023-04-01T01:12:29;36.53;;;22.13;;
6941;SDS011;3510;43.200;27.920;2023-04-01T01:15:07;38.73;;;22.83;;
6941;SDS011;3510;43.200;27.920;2023-04-01T01:17:45;37.57;;;23.73;;
6941;SDS011;3510;43.200;27.920;2023-04-01T01:20:24;41.85;;;33.03;;
6941;SDS011;3510;43.200;27.920;2023-04-01T01:23:16;41.88;;;31.55;;
6941;SDS011;3510;43.200;27.920;2023-04-01T01:26:09;42.47;;;31.93;;
6941;SDS011;3510;43.200;27.920;2023-04-01T01:28:52;51.15;;;36.70;;
6941;SDS011;3510;43.200;27.920;2023-04-01T01:31:30;50.42;;;36.58;;
6941;SDS011;3510;43.200;27.920;2023-04-01T01:34:06;44.13;;;31.13;;
6941;SDS011;3510;43.200;27.920;2023-04-01T01:36:45;41.87;;;27.10;;
6941;SDS011;3510;43.200;27.920;2023-04-01T01:39:18;37.60;;;23.90;;
6941;SDS011;3510;43.200;27.920;2023-04-01T01:41:46;30.97;;;20.70;;
6941;SDS011;3510;43.200;27.920;2023-04-01T01:44:14;34.40;;;27.47;;
6941;SDS011;3510;43.200;27.920;2023-04-01T01:46:42;34.70;;;20.63;;
6941;SDS011;3510;43.200;27.920;2023-04-01T01:49:11;31.13;;;19.67;;
6941;SDS011;3510;43.200;27.920;2023-04-01T01:51:41;35.27;;;21.53;;
6941;SDS011;3510;43.200;27.920;2023-04-01T01:54:13;32.87;;;23.10;;
6941;SDS011;3510;43.200;27.920;2023-04-01T01:56:45;42.03;;;26.50;;
6941;SDS011;3510;43.200;27.920;2023-04-01T01:59:15;40.07;;;22.53;;
6941;SDS011;3510;43.200;27.920;2023-04-01T02:01:45;23.93;;;17.40;;
6941;SDS011;3510;43.200;27.920;2023-04-01T02:04:15;38.20;;;26.75;;
6941;SDS011;3510;43.200;27.920;2023-04-01T02:06:46;41.20;;;28.65;;
6941;SDS011;3510;43.200;27.920;2023-04-01T02:09:20;35.50;;;26.83;;
6941;SDS011;3510;43.200;27.920;2023-04-01T02:11:47;34.10;;;22.23;;
6941;SDS011;3510;43.200;27.920;2023-04-01T02:14:17;34.70;;;21.77;;
6941;SDS011;3510;43.200;27.920;2023-04-01T02:16:47;33.00;;;22.27;;
6941;SDS011;3510;43.200;27.920;2023-04-01T02:19:18;32.37;;;20.20;;
6941;SDS011;3510;43.200;27.920;2023-04-01T02:21:49;36.47;;;25.67;;
6941;SDS011;3510;43.200;27.920;2023-04-01T02:24:20;41.65;;;25.35;;
6941;SDS011;3510;43.200;27.920;2023-04-01T02:26:51;35.28;;;25.15;;
6941;SDS011;3510;43.200;27.920;2023-04-01T02:29:19;31.13;;;22.53;;
6941;SDS011;3510;43.200;27.920;2023-04-01T02:31:48;32.53;;;22.27;;
6941;SDS011;3510;43.200;27.920;2023-04-01T02:34:16;39.23;;;22.87;;
6941;SDS011;3510;43.200;27.920;2023-04-01T02:36:43;43.83;;;22.33;;
6941;SDS011;3510;43.200;27.920;2023-04-01T03:35:35;22.50;;;17.77;;
6941;SDS011;3510;43.200;27.920;2023-04-01T03:38:02;25.15;;;19.48;;
6941;SDS011;3510;43.200;27.920;2023-04-01T03:40:29;26.10;;;21.30;;
6941;SDS011;3510;43.200;27.920;2023-04-01T03:42:58;25.55;;;20.92;;
6941;SDS011;3510;43.200;27.920;2023-04-01T03:45:24;22.70;;;17.70;;
6941;SDS011;3510;43.200;27.920;2023-04-01T03:47:51;25.50;;;17.77;;
6941;SDS011;3510;43.200;27.920;2023-04-01T03:50:20;20.57;;;14.30;;
6941;SDS011;3510;43.200;27.920;2023-04-01T03:52:47;22.57;;;16.73;;
6941;SDS011;3510;43.200;27.920;2023-04-01T03:55:14;28.80;;;18.03;;
6941;SDS011;3510;43.200;27.920;2023-04-01T03:57:43;33.17;;;24.02;;
6941;SDS011;3510;43.200;27.920;2023-04-01T04:00:10;35.40;;;26.50;;
6941;SDS011;3510;43.200;27.920;2023-04-01T04:02:37;33.23;;;23.73;;
6941;SDS011;3510;43.200;27.920;2023-04-01T04:05:04;32.20;;;22.93;;
6941;SDS011;3510;43.200;27.920;2023-04-01T04:07:33;44.17;;;22.37;;
6941;SDS011;3510;43.200;27.920;2023-04-01T04:10:00;34.83;;;23.33;;
6941;SDS011;3510;43.200;27.920;2023-04-01T04:12:27;36.10;;;22.20;;
6941;SDS011;3510;43.200;27.920;2023-04-01T04:14:53;33.40;;;21.97;;
6941;SDS011;3510;43.200;27.920;2023-04-01T04:17:20;31.67;;;22.27;;
6941;SDS011;3510;43.200;27.920;2023-04-01T04:19:47;42.43;;;22.67;;
6941;SDS011;3510;43.200;27.920;2023-04-01T04:22:13;41.58;;;26.70;;
6941;SDS011;3510;43.200;27.920;2023-04-01T04:24:42;40.90;;;22.60;;
6941;SDS011;3510;43.200;27.920;2023-04-01T04:27:08;43.03;;;23.33;;
6941;SDS011;3510;43.200;27.920;2023-04-01T04:29:35;40.00;;;27.58;;
6941;SDS011;3510;43.200;27.920;2023-04-01T04:32:02;41.57;;;23.53;;
6941;SDS011;3510;43.200;27.920;2023-04-01T04:34:28;42.23;;;28.70;;
6941;SDS011;3510;43.200;27.920;2023-04-01T04:36:55;34.37;;;22.07;;
6941;SDS011;3510;43.200;27.920;2023-04-01T04:39:22;31.60;;;20.47;;
6941;SDS011;3510;43.200;27.920;2023-04-01T04:41:52;25.53;;;19.53;;
6941;SDS011;3510;43.200;27.920;2023-04-01T04:44:19;27.10;;;18.80;;
6941;SDS011;3510;43.200;27.920;2023-04-01T04:46:45;23.20;;;19.02;;
6941;SDS011;3510;43.200;27.920;2023-04-01T04:49:12;30.07;;;19.70;;
6941;SDS011;3510;43.200;27.920;2023-04-01T04:51:39;30.97;;;19.23;;
6941;SDS011;3510;43.200;27.920;2023-04-01T04:54:06;26.97;;;17.70;;
6941;SDS011;3510;43.200;27.920;2023-04-01T04:56:33;29.73;;;18.33;;
6941;SDS011;3510;43.200;27.920;2023-04-01T04:59:02;22.13;;;18.53;;
6941;SDS011;3510;43.200;27.920;2023-04-01T05:01:29;38.60;;;26.00;;
6941;SDS011;3510;43.200;27.920;2023-04-01T05:03:56;32.37;;;21.30;;
6941;SDS011;3510;43.200;27.920;2023-04-01T05:06:22;36.93;;;22.57;;
6941;SDS011;3510;43.200;27.920;2023-04-01T05:08:53;43.57;;;23.73;;
6941;SDS011;3510;43.200;27.920;2023-04-01T05:11:20;45.47;;;31.07;;
6941;SDS011;3510;43.200;27.920;2023-04-01T05:13:47;39.47;;;23.40;;
6941;SDS011;3510;43.200;27.920;2023-04-01T05:16:18;43.50;;;21.77;;
6941;SDS011;3510;43.200;27.920;2023-04-01T05:18:47;47.60;;;21.63;;
6941;SDS011;3510;43.200;27.920;2023-04-01T05:21:17;41.70;;;21.03;;
6941;SDS011;3510;43.200;27.920;2023-04-01T05:23:44;30.63;;;17.43;;
6941;SDS011;3510;43.200;27.920;2023-04-01T05:26:11;26.17;;;16.97;;
6941;SDS011;3510;43.200;27.920;2023-04-01T05:28:39;23.87;;;16.70;;
6941;SDS011;3510;43.200;27.920;2023-04-01T05:31:06;32.40;;;18.13;;
6941;SDS011;3510;43.200;27.920;2023-04-01T05:33:35;35.73;;;18.47;;
6941;SDS011;3510;43.200;27.920;2023-04-01T05:36:05;29.27;;;17.13;;
6941;SDS011;3510;43.200;27.920;2023-04-01T05:38:33;27.08;;;20.63;;
6941;SDS011;3510;43.200;27.920;2023-04-01T05:41:01;30.27;;;18.87;;
6941;SDS011;3510;43.200;27.920;2023-04-01T05:43:29;26.40;;;17.23;;
6941;SDS011;3510;43.200;27.920;2023-04-01T05:45:55;33.83;;;18.90;;
6941;SDS011;3510;43.200;27.920;2023-04-01T05:48:22;31.73;;;17.07;;
6941;SDS011;3510;43.200;27.920;2023-04-01T05:50:50;34.03;;;17.80;;
6941;SDS011;3510;43.200;27.920;2023-04-01T05:53:17;30.97;;;17.40;;
6941;SDS011;3510;43.200;27.920;2023-04-01T05:55:44;28.33;;;16.93;;
6941;SDS011;3510;43.200;27.920;2023-04-01T05:58:11;19.87;;;13.70;;
6941;SDS011;3510;43.200;27.920;2023-04-01T06:00:38;30.37;;;15.27;;
6941;SDS011;3510;43.200;27.920;2023-04-01T06:03:04;19.57;;;10.80;;
6941;SDS011;3510;43.200;27.920;2023-04-01T06:05:37;17.13;;;11.83;;
6941;SDS011;3510;43.200;27.920;2023-04-01T06:08:10;20.97;;;11.07;;
6941;SDS011;3510;43.200;27.920;2023-04-01T06:10:43;19.13;;;13.13;;
6941;SDS011;3510;43.200;27.920;2023-04-01T06:13:21;29.60;;;16.43;;
6941;SDS011;3510;43.200;27.920;2023-04-01T06:15:57;30.47;;;16.17;;
6941;SDS011;3510;43.200;27.920;2023-04-01T06:21:33;27.90;;;14.47;;
6941;SDS011;3510;43.200;27.920;2023-04-01T06:24:15;18.73;;;14.23;;
6941;SDS011;3510;43.200;27.920;2023-04-01T06:26:52;24.63;;;14.77;;
6941;SDS011;3510;43.200;27.920;2023-04-01T06:29:35;16.93;;;14.43;;
6941;SDS011;3510;43.200;27.920;2023-04-01T06:35:13;17.33;;;14.13;;
6941;SDS011;3510;43.200;27.920;2023-04-01T06:37:54;20.92;;;15.95;;
6941;SDS011;3510;43.200;27.920;2023-04-01T06:40:38;23.92;;;17.45;;
6941;SDS011;3510;43.200;27.920;2023-04-01T06:43:19;22.77;;;17.88;;
6941;SDS011;3510;43.200;27.920;2023-04-01T06:45:52;27.13;;;18.58;;
6941;SDS011;3510;43.200;27.920;2023-04-01T06:48:30;22.73;;;18.17;;
6941;SDS011;3510;43.200;27.920;2023-04-01T06:51:09;23.42;;;17.88;;
6941;SDS011;3510;43.200;27.920;2023-04-01T06:53:48;20.93;;;16.80;;
6941;SDS011;3510;43.200;27.920;2023-04-01T06:56:22;17.40;;;14.55;;
6941;SDS011;3510;43.200;27.920;2023-04-01T06:58:53;18.00;;;12.87;;
6941;SDS011;3510;43.200;27.920;2023-04-01T07:01:26;15.13;;;11.73;;
6941;SDS011;3510;43.200;27.920;2023-04-01T07:03:58;11.73;;;10.60;;
6941;SDS011;3510;43.200;27.920;2023-04-01T07:06:31;16.73;;;10.93;;
6941;SDS011;3510;43.200;27.920;2023-04-01T08:06:03;9.10;;;6.07;;
6941;SDS011;3510;43.200;27.920;2023-04-01T08:08:40;8.50;;;5.40;;
6941;SDS011;3510;43.200;27.920;2023-04-01T08:11:33;7.83;;;4.47;;
6941;SDS011;3510;43.200;27.920;2023-04-01T08:14:17;7.17;;;4.67;;
6941;SDS011;3510;43.200;27.920;2023-04-01T08:16:51;9.23;;;5.27;;
6941;SDS011;3510;43.200;27.920;2023-04-01T08:19:27;6.40;;;4.37;;
6941;SDS011;3510;43.200;27.920;2023-04-01T08:22:03;14.13;;;6.30;;
6941;SDS011;3510;43.200;27.920;2023-04-01T08:24:37;10.57;;;4.30;;
6941;SDS011;3510;43.200;27.920;2023-04-01T08:27:09;8.07;;;4.27;;
6941;SDS011;3510;43.200;27.920;2023-04-01T08:29:44;5.20;;;4.27;;
6941;SDS011;3510;43.200;27.920;2023-04-01T08:32:17;9.77;;;4.70;;
6941;SDS011;3510;43.200;27.920;2023-04-01T08:34:51;7.00;;;4.47;;
6941;SDS011;3510;43.200;27.920;2023-04-01T08:37:25;5.60;;;3.90;;
6941;SDS011;3510;43.200;27.920;2023-04-01T08:40:00;4.83;;;3.87;;
6941;SDS011;3510;43.200;27.920;2023-04-01T08:42:48;6.30;;;3.70;;
6941;SDS011;3510;43.200;27.920;2023-04-01T08:45:38;6.73;;;4.17;;
6941;SDS011;3510;43.200;27.920;2023-04-01T08:48:27;9.97;;;4.30;;
6941;SDS011;3510;43.200;27.920;2023-04-01T08:51:12;8.80;;;4.27;;
6941;SDS011;3510;43.200;27.920;2023-04-01T08:53:51;6.27;;;4.40;;
6941;SDS011;3510;43.200;27.920;2023-04-01T08:56:34;5.23;;;3.63;;
6941;SDS011;3510;43.200;27.920;2023-04-01T08:59:09;5.83;;;3.60;;
6941;SDS011;3510;43.200;27.920;2023-04-01T09:01:56;5.47;;;4.00;;
6941;SDS011;3510;43.200;27.920;2023-04-01T09:04:47;7.13;;;3.70;;
6941;SDS011;3510;43.200;27.920;2023-04-01T09:07:33;18.53;;;4.20;;
6941;SDS011;3510;43.200;27.920;2023-04-01T09:10:18;11.17;;;4.90;;
6941;SDS011;3510;43.200;27.920;2023-04-01T09:13:10;9.27;;;4.50;;
6941;SDS011;3510;43.200;27.920;2023-04-01T09:15:50;10.90;;;4.40;;
6941;SDS011;3510;43.200;27.920;2023-04-01T09:21:24;8.17;;;5.10;;
6941;SDS011;3510;43.200;27.920;2023-04-01T09:24:11;6.70;;;4.13;;
6941;SDS011;3510;43.200;27.920;2023-04-01T09:26:56;4.53;;;4.13;;
6941;SDS011;3510;43.200;27.920;2023-04-01T09:29:36;8.77;;;4.63;;
6941;SDS011;3510;43.200;27.920;2023-04-01T09:32:33;10.43;;;4.83;;
6941;SDS011;3510;43.200;27.920;2023-04-01T09:35:20;11.95;;;4.88;;
6941;SDS011;3510;43.200;27.920;2023-04-01T09:37:53;12.20;;;4.50;;
6941;SDS011;3510;43.200;27.920;2023-04-01T09:40:31;7.43;;;4.10;;
6941;SDS011;3510;43.200;27.920;2023-04-01T09:43:22;9.40;;;4.63;;
6941;SDS011;3510;43.200;27.920;2023-04-01T09:45:56;8.20;;;4.83;;
6941;SDS011;3510;43.200;27.920;2023-04-01T09:48:37;6.10;;;3.90;;
6941;SDS011;3510;43.200;27.920;2023-04-01T09:51:22;9.00;;;4.93;;
6941;SDS011;3510;43.200;27.920;2023-04-01T09:53:59;6.33;;;3.93;;
6941;SDS011;3510;43.200;27.920;2023-04-01T10:08:23;10.80;;;5.00;;
6941;SDS011;3510;43.200;27.920;2023-04-01T10:11:11;10.07;;;4.97;;
6941;SDS011;3510;43.200;27.920;2023-04-01T10:16:52;7.20;;;4.70;;
6941;SDS011;3510;43.200;27.920;2023-04-01T10:19:45;13.95;;;6.30;;
6941;SDS011;3510;43.200;27.920;2023-04-01T10:25:19;14.20;;;6.00;;
6941;SDS011;3510;43.200;27.920;2023-04-01T10:28:02;14.75;;;6.70;;
6941;SDS011;3510;43.200;27.920;2023-04-01T10:36:35;10.60;;;5.85;;
6941;SDS011;3510;43.200;27.920;2023-04-01T10:39:20;12.97;;;6.27;;
6941;SDS011;3510;43.200;27.920;2023-04-01T10:42:08;17.27;;;5.87;;
6941;SDS011;3510;43.200;27.920;2023-04-01T10:53:32;20.10;;;5.50;;
6941;SDS011;3510;43.200;27.920;2023-04-01T11:13:12;16.83;;;7.20;;
6941;SDS011;3510;43.200;27.920;2023-04-01T11:16:03;11.35;;;5.80;;
6941;SDS011;3510;43.200;27.920;2023-04-01T11:21:46;12.20;;;6.00;;
6941;SDS011;3510;43.200;27.920;2023-04-01T11:27:16;9.00;;;5.32;;
6941;SDS011;3510;43.200;27.920;2023-04-01T11:30:03;8.80;;;5.55;;
6941;SDS011;3510;43.200;27.920;2023-04-01T11:32:43;9.43;;;4.65;;
6941;SDS011;3510;43.200;27.920;2023-04-01T11:38:09;8.70;;;4.57;;
6941;SDS011;3510;43.200;27.920;2023-04-01T11:40:47;12.82;;;5.97;;
6941;SDS011;3510;43.200;27.920;2023-04-01T11:43:24;13.38;;;5.95;;
6941;SDS011;3510;43.200;27.920;2023-04-01T11:46:01;9.07;;;5.00;;
6941;SDS011;3510;43.200;27.920;2023-04-01T11:48:38;7.25;;;4.03;;
6941;SDS011;3510;43.200;27.920;2023-04-01T11:54:06;10.55;;;5.03;;
6941;SDS011;3510;43.200;27.920;2023-04-01T12:27:06;14.68;;;6.20;;
6941;SDS011;3510;43.200;27.920;2023-04-01T12:30:04;13.40;;;5.88;;
6941;SDS011;3510;43.200;27.920;2023-04-01T12:32:57;11.07;;;5.90;;
6941;SDS011;3510;43.200;27.920;2023-04-01T12:35:57;13.05;;;5.70;;
6941;SDS011;3510;43.200;27.920;2023-04-01T12:38:48;12.52;;;5.95;;
6941;SDS011;3510;43.200;27.920;2023-04-01T12:41:44;17.58;;;6.53;;
6941;SDS011;3510;43.200;27.920;2023-04-01T12:47:31;12.68;;;6.30;;
6941;SDS011;3510;43.200;27.920;2023-04-01T12:50:37;12.38;;;5.85;;
6941;SDS011;3510;43.200;27.920;2023-04-01T12:53:41;11.95;;;6.32;;
6941;SDS011;3510;43.200;27.920;2023-04-01T12:56:37;12.32;;;5.78;;
6941;SDS011;3510;43.200;27.920;2023-04-01T12:59:32;11.15;;;5.95;;
6941;SDS011;3510;43.200;27.920;2023-04-01T13:02:27;13.40;;;7.63;;
6941;SDS011;3510;43.200;27.920;2023-04-01T13:15:02;13.20;;;6.63;;
6941;SDS011;3510;43.200;27.920;2023-04-01T13:17:53;13.82;;;6.70;;
6941;SDS011;3510;43.200;27.920;2023-04-01T13:20:42;12.85;;;7.13;;
6941;SDS011;3510;43.200;27.920;2023-04-01T13:23:32;12.93;;;7.03;;
6941;SDS011;3510;43.200;27.920;2023-04-01T13:26:22;16.13;;;7.07;;
6941;SDS011;3510;43.200;27.920;2023-04-01T13:28:58;17.80;;;6.88;;
6941;SDS011;3510;43.200;27.920;2023-04-01T13:31:53;13.85;;;6.47;;
6941;SDS011;3510;43.200;27.920;2023-04-01T13:34:32;10.88;;;6.28;;
6941;SDS011;3510;43.200;27.920;2023-04-01T13:37:11;11.43;;;6.32;;
6941;SDS011;3510;43.200;27.920;2023-04-01T13:39:51;14.43;;;7.00;;
6941;SDS011;3510;43.200;27.920;2023-04-01T13:42:30;12.40;;;6.07;;
6941;SDS011;3510;43.200;27.920;2023-04-01T13:45:09;15.90;;;6.90;;
6941;SDS011;3510;43.200;27.920;2023-04-01T13:47:49;15.13;;;5.72;;
6941;SDS011;3510;43.200;27.920;2023-04-01T13:50:34;11.27;;;4.80;;
6941;SDS011;3510;43.200;27.920;2023-04-01T13:53:17;8.20;;;5.10;;
6941;SDS011;3510;43.200;27.920;2023-04-01T13:56:02;9.98;;;4.93;;
6941;SDS011;3510;43.200;27.920;2023-04-01T13:58:45;14.52;;;5.35;;
6941;SDS011;3510;43.200;27.920;2023-04-01T14:01:23;11.98;;;4.82;;
6941;SDS011;3510;43.200;27.920;2023-04-01T14:04:13;11.48;;;4.70;;
6941;SDS011;3510;43.200;27.920;2023-04-01T14:06:56;8.55;;;4.55;;
6941;SDS011;3510;43.200;27.920;2023-04-01T14:09:36;15.13;;;5.05;;
6941;SDS011;3510;43.200;27.920;2023-04-01T14:12:26;9.90;;;4.63;;
6941;SDS011;3510;43.200;27.920;2023-04-01T14:15:01;10.07;;;4.70;;
6941;SDS011;3510;43.200;27.920;2023-04-01T14:17:50;12.57;;;5.25;;
6941;SDS011;3510;43.200;27.920;2023-04-01T14:20:27;14.75;;;5.57;;
6941;SDS011;3510;43.200;27.920;2023-04-01T14:23:05;11.70;;;5.40;;
6941;SDS011;3510;43.200;27.920;2023-04-01T14:28:31;14.43;;;5.70;;
6941;SDS011;3510;43.200;27.920;2023-04-01T14:31:10;13.68;;;5.25;;
6941;SDS011;3510;43.200;27.920;2023-04-01T14:33:50;10.23;;;5.28;;
6941;SDS011;3510;43.200;27.920;2023-04-01T14:36:34;15.77;;;5.85;;
6941;SDS011;3510;43.200;27.920;2023-04-01T14:39:15;14.00;;;5.97;;
6941;SDS011;3510;43.200;27.920;2023-04-01T14:41:58;13.27;;;5.20;;
6941;SDS011;3510;43.200;27.920;2023-04-01T14:44:46;10.95;;;5.55;;
6941;SDS011;3510;43.200;27.920;2023-04-01T14:50:11;11.73;;;5.05;;
6941;SDS011;3510;43.200;27.920;2023-04-01T14:52:44;13.82;;;5.55;;
6941;SDS011;3510;43.200;27.920;2023-04-01T14:55:20;15.13;;;5.30;;
6941;SDS011;3510;43.200;27.920;2023-04-01T14:57:58;13.82;;;5.43;;
6941;SDS011;3510;43.200;27.920;2023-04-01T15:00:26;12.13;;;4.82;;
6941;SDS011;3510;43.200;27.920;2023-04-01T15:02:55;15.13;;;5.13;;
6941;SDS011;3510;43.200;27.920;2023-04-01T15:05:32;12.70;;;5.68;;
6941;SDS011;3510;43.200;27.920;2023-04-01T15:08:11;11.52;;;5.20;;
6941;SDS011;3510;43.200;27.920;2023-04-01T15:10:48;9.77;;;5.75;;
6941;SDS011;3510;43.200;27.920;2023-04-01T15:13:24;11.80;;;5.38;;
6941;SDS011;3510;43.200;27.920;2023-04-01T15:16:07;15.45;;;5.45;;
6941;SDS011;3510;43.200;27.920;2023-04-01T15:18:49;12.20;;;4.75;;
6941;SDS011;3510;43.200;27.920;2023-04-01T15:21:33;13.45;;;4.93;;
6941;SDS011;3510;43.200;27.920;2023-04-01T15:24:13;13.95;;;5.25;;
6941;SDS011;3510;43.200;27.920;2023-04-01T15:26:52;15.90;;;5.05;;
6941;SDS011;3510;43.200;27.920;2023-04-01T15:29:38;15.60;;;4.60;;
6941;SDS011;3510;43.200;27.920;2023-04-01T15:32:16;15.37;;;5.87;;
6941;SDS011;3510;43.200;27.920;2023-04-01T15:34:46;13.57;;;4.82;;
6941;SDS011;3510;43.200;27.920;2023-04-01T15:45:02;6.35;;;4.22;;
6941;SDS011;3510;43.200;27.920;2023-04-01T15:47:39;16.63;;;5.68;;
6941;SDS011;3510;43.200;27.920;2023-04-01T15:56:06;16.42;;;5.03;;
6941;SDS011;3510;43.200;27.920;2023-04-01T15:58:46;12.77;;;5.22;;
6941;SDS011;3510;43.200;27.920;2023-04-01T16:01:22;12.73;;;5.22;;
6941;SDS011;3510;43.200;27.920;2023-04-01T16:03:58;11.98;;;5.38;;
6941;SDS011;3510;43.200;27.920;2023-04-01T16:06:48;17.77;;;5.63;;
6941;SDS011;3510;43.200;27.920;2023-04-01T16:09:26;15.83;;;5.50;;
6941;SDS011;3510;43.200;27.920;2023-04-01T16:12:04;16.92;;;5.45;;
6941;SDS011;3510;43.200;27.920;2023-04-01T16:14:43;15.20;;;5.93;;
6941;SDS011;3510;43.200;27.920;2023-04-01T16:17:25;15.65;;;6.50;;
6941;SDS011;3510;43.200;27.920;2023-04-01T16:20:03;17.95;;;7.03;;
6941;SDS011;3510;43.200;27.920;2023-04-01T16:22:45;25.67;;;6.85;;
6941;SDS011;3510;43.200;27.920;2023-04-01T16:25:20;20.30;;;6.17;;
6941;SDS011;3510;43.200;27.920;2023-04-01T16:30:34;11.33;;;5.87;;
6941;SDS011;3510;43.200;27.920;2023-04-01T16:33:03;7.47;;;5.20;;
6941;SDS011;3510;43.200;27.920;2023-04-01T16:35:39;12.37;;;5.73;;
6941;SDS011;3510;43.200;27.920;2023-04-01T16:38:12;14.03;;;5.40;;
6941;SDS011;3510;43.200;27.920;2023-04-01T16:40:47;11.30;;;6.27;;
6941;SDS011;3510;43.200;27.920;2023-04-01T16:43:26;15.13;;;6.20;;
6941;SDS011;3510;43.200;27.920;2023-04-01T16:46:13;9.40;;;5.93;;
6941;SDS011;3510;43.200;27.920;2023-04-01T16:48:57;11.10;;;4.97;;
6941;SDS011;3510;43.200;27.920;2023-04-01T16:51:31;13.03;;;5.87;;
6941;SDS011;3510;43.200;27.920;2023-04-01T16:54:05;11.97;;;5.40;;
6941;SDS011;3510;43.200;27.920;2023-04-01T16:56:41;22.43;;;6.70;;
6941;SDS011;3510;43.200;27.920;2023-04-01T16:59:16;14.93;;;5.80;;
6941;SDS011;3510;43.200;27.920;2023-04-01T17:01:49;16.60;;;5.97;;
6941;SDS011;3510;43.200;27.920;2023-04-01T17:04:23;13.73;;;6.43;;
6941;SDS011;3510;43.200;27.920;2023-04-01T17:07:01;22.83;;;6.33;;
6941;SDS011;3510;43.200;27.920;2023-04-01T17:09:40;13.20;;;6.77;;
6941;SDS011;3510;43.200;27.920;2023-04-01T17:12:18;20.83;;;6.47;;
6941;SDS011;3510;43.200;27.920;2023-04-01T17:14:54;16.53;;;5.63;;
6941;SDS011;3510;43.200;27.920;2023-04-01T17:17:34;20.57;;;5.97;;
6941;SDS011;3510;43.200;27.920;2023-04-01T17:20:11;15.70;;;6.27;;
6941;SDS011;3510;43.200;27.920;2023-04-01T17:22:48;12.70;;;5.57;;
6941;SDS011;3510;43.200;27.920;2023-04-01T17:25:29;14.37;;;5.93;;
6941;SDS011;3510;43.200;27.920;2023-04-01T17:28:05;12.50;;;6.70;;
6941;SDS011;3510;43.200;27.920;2023-04-01T17:30:44;15.07;;;5.77;;
6941;SDS011;3510;43.200;27.920;2023-04-01T17:33:23;13.73;;;5.77;;
6941;SDS011;3510;43.200;27.920;2023-04-01T17:35:58;25.27;;;7.00;;
6941;SDS011;3510;43.200;27.920;2023-04-01T17:38:39;17.50;;;6.27;;
6941;SDS011;3510;43.200;27.920;2023-04-01T17:41:17;12.57;;;6.10;;
6941;SDS011;3510;43.200;27.920;2023-04-01T17:43:57;18.80;;;5.50;;
6941;SDS011;3510;43.200;27.920;2023-04-01T17:46:35;19.00;;;6.67;;
6941;SDS011;3510;43.200;27.920;2023-04-01T17:49:16;14.93;;;6.37;;
6941;SDS011;3510;43.200;27.920;2023-04-01T17:51:51;12.23;;;5.53;;
6941;SDS011;3510;43.200;27.920;2023-04-01T17:54:25;11.27;;;5.37;;
6941;SDS011;3510;43.200;27.920;2023-04-01T17:57:09;16.20;;;6.37;;
6941;SDS011;3510;43.200;27.920;2023-04-01T17:59:53;17.47;;;5.50;;
6941;SDS011;3510;43.200;27.920;2023-04-01T18:02:30;15.27;;;6.47;;
6941;SDS011;3510;43.200;27.920;2023-04-01T18:05:13;12.73;;;6.70;;
6941;SDS011;3510;43.200;27.920;2023-04-01T18:07:54;14.70;;;7.00;;
6941;SDS011;3510;43.200;27.920;2023-04-01T18:10:31;19.23;;;7.83;;
6941;SDS011;3510;43.200;27.920;2023-04-01T18:13:17;16.10;;;7.00;;
6941;SDS011;3510;43.200;27.920;2023-04-01T18:16:00;14.60;;;7.70;;
6941;SDS011;3510;43.200;27.920;2023-04-01T18:18:45;15.57;;;7.10;;
6941;SDS011;3510;43.200;27.920;2023-04-01T18:21:23;24.60;;;8.17;;
6941;SDS011;3510;43.200;27.920;2023-04-01T18:23:59;25.97;;;7.80;;
6941;SDS011;3510;43.200;27.920;2023-04-01T18:26:33;22.00;;;6.03;;
6941;SDS011;3510;43.200;27.920;2023-04-01T18:29:04;12.03;;;7.10;;
6941;SDS011;3510;43.200;27.920;2023-04-01T18:31:45;22.03;;;7.17;;
6941;SDS011;3510;43.200;27.920;2023-04-01T18:34:18;17.20;;;6.23;;
6941;SDS011;3510;43.200;27.920;2023-04-01T18:36:58;18.20;;;5.63;;
6941;SDS011;3510;43.200;27.920;2023-04-01T18:39:31;20.10;;;6.53;;
6941;SDS011;3510;43.200;27.920;2023-04-01T18:42:05;12.60;;;6.40;;
6941;SDS011;3510;43.200;27.920;2023-04-01T18:44:43;15.30;;;6.10;;
6941;SDS011;3510;43.200;27.920;2023-04-01T18:47:15;14.30;;;6.10;;
6941;SDS011;3510;43.200;27.920;2023-04-01T18:49:59;23.53;;;9.47;;
6941;SDS011;3510;43.200;27.920;2023-04-01T18:52:34;14.23;;;6.17;;
6941;SDS011;3510;43.200;27.920;2023-04-01T18:55:20;11.50;;;4.47;;
6941;SDS011;3510;43.200;27.920;2023-04-01T18:57:58;7.93;;;4.57;;
6941;SDS011;3510;43.200;27.920;2023-04-01T19:00:41;3.83;;;3.13;;
6941;SDS011;3510;43.200;27.920;2023-04-01T19:03:16;7.30;;;2.87;;
6941;SDS011;3510;43.200;27.920;2023-04-01T19:05:50;5.20;;;2.57;;
6941;SDS011;3510;43.200;27.920;2023-04-01T19:08:25;1.60;;;1.50;;
6941;SDS011;3510;43.200;27.920;2023-04-01T19:11:01;1.90;;;1.80;;
6941;SDS011;3510;43.200;27.920;2023-04-01T19:13:38;2.43;;;2.20;;
6941;SDS011;3510;43.200;27.920;2023-04-01T19:16:18;2.43;;;2.23;;
6941;SDS011;3510;43.200;27.920;2023-04-01T19:18:59;3.30;;;2.17;;
6941;SDS011;3510;43.200;27.920;2023-04-01T19:21:37;6.40;;;2.30;;
6941;SDS011;3510;43.200;27.920;2023-04-01T19:24:18;3.60;;;2.60;;
6941;SDS011;3510;43.200;27.920;2023-04-01T19:26:58;3.47;;;2.97;;
6941;SDS011;3510;43.200;27.920;2023-04-01T19:29:39;3.10;;;2.90;;
6941;SDS011;3510;43.200;27.920;2023-04-01T19:32:24;5.03;;;3.20;;
6941;SDS011;3510;43.200;27.920;2023-04-01T19:35:10;5.40;;;4.37;;
6941;SDS011;3510;43.200;27.920;2023-04-01T19:37:50;8.27;;;4.87;;
6941;SDS011;3510;43.200;27.920;2023-04-01T19:40:27;8.97;;;4.80;;
6941;SDS011;3510;43.200;27.920;2023-04-01T19:43:07;7.23;;;5.90;;
6941;SDS011;3510;43.200;27.920;2023-04-01T19:45:45;6.97;;;6.20;;
6941;SDS011;3510;43.200;27.920;2023-04-01T19:48:24;6.53;;;5.00;;